Time;durP1;ratioP1;P1;durP2;ratioP2;P2;SDS_P1;SDS_P2;PMS_P1;PMS_P2;Temp;Humidity;BMP_temperature;BMP_pressure;BME280_temperature;BME280_humidity;BME280_pressure;Samples;Min_cycle;Max_cycle;Signal;HPM_P1;HPM_P2
2022/07/11 00:01:08;;;;;;;3.70;1.25;;;;;;;;;;4953834;28;20070;-71
2022/07/11 00:03:53;;;;;;;2.70;1.23;;;;;;;;;;4968390;28;20023;-74
2022/07/11 00:06:39;;;;;;;5.80;1.50;;;;;;;;;;4950329;28;20031;-73
2022/07/11 00:09:24;;;;;;;2.20;1.10;;;;;;;;;;4951296;28;20046;-74
2022/07/11 00:12:11;;;;;;;3.55;1.30;;;;;;;;;;4951873;28;20054;-74
2022/07/11 00:14:57;;;;;;;2.80;1.33;;;;;;;;;;4967104;28;20018;-74
2022/07/11 00:17:42;;;;;;;2.03;1.20;;;;;;;;;;4946830;28;20456;-67
2022/07/11 00:20:28;;;;;;;2.80;1.33;;;;;;;;;;4957009;28;20031;-68
2022/07/11 00:23:14;;;;;;;1.77;1.20;;;;;;;;;;4957861;28;20034;-66
2022/07/11 00:25:59;;;;;;;2.33;1.20;;;;;;;;;;4954003;28;20030;-67
2022/07/11 00:28:45;;;;;;;2.65;1.20;;;;;;;;;;4948683;28;20620;-67
2022/07/11 00:31:30;;;;;;;3.53;1.48;;;;;;;;;;4951993;28;20020;-66
2022/07/11 00:34:17;;;;;;;2.08;1.13;;;;;;;;;;4953493;28;20030;-66
2022/07/11 00:37:03;;;;;;;2.72;1.20;;;;;;;;;;4951794;28;20016;-74
2022/07/11 00:39:48;;;;;;;2.80;1.70;;;;;;;;;;4943901;28;20027;-72
2022/07/11 00:42:34;;;;;;;2.70;1.33;;;;;;;;;;4951962;28;20032;-71
2022/07/11 00:45:20;;;;;;;1.95;1.27;;;;;;;;;;4954576;28;20031;-71
2022/07/11 00:48:05;;;;;;;2.33;1.45;;;;;;;;;;4959805;28;20516;-75
2022/07/11 00:50:51;;;;;;;2.65;1.40;;;;;;;;;;4953824;28;20029;-72
2022/07/11 00:53:36;;;;;;;2.53;1.35;;;;;;;;;;4957216;28;20027;-72
2022/07/11 00:56:23;;;;;;;2.67;1.60;;;;;;;;;;4950636;28;20015;-66
2022/07/11 00:59:09;;;;;;;1.30;1.13;;;;;;;;;;4955012;28;20055;-65
2022/07/11 01:01:54;;;;;;;2.53;1.50;;;;;;;;;;4953944;28;20448;-65
2022/07/11 01:04:40;;;;;;;2.72;1.55;;;;;;;;;;4953784;28;20110;-66
2022/07/11 01:07:26;;;;;;;5.53;2.40;;;;;;;;;;4949943;28;20439;-66
2022/07/11 01:10:11;;;;;;;2.22;1.13;;;;;;;;;;4940173;28;20020;-65
2022/07/11 01:12:57;;;;;;;2.28;1.15;;;;;;;;;;4964046;28;20027;-70
2022/07/11 01:15:42;;;;;;;1.70;1.20;;;;;;;;;;4958684;28;20034;-73
2022/07/11 01:18:28;;;;;;;1.35;1.20;;;;;;;;;;4953597;28;20072;-72
2022/07/11 01:21:19;;;;;;;2.28;1.30;;;;;;;;;;4953145;28;20046;-72
2022/07/11 01:24:05;;;;;;;3.08;1.30;;;;;;;;;;4953258;28;20022;-72
2022/07/11 01:26:51;;;;;;;2.65;1.48;;;;;;;;;;4959746;28;20031;-71
2022/07/11 01:29:36;;;;;;;2.45;1.40;;;;;;;;;;4955951;28;20093;-71
2022/07/11 01:32:22;;;;;;;4.63;1.40;;;;;;;;;;4949932;28;20023;-73
2022/07/11 01:35:08;;;;;;;3.17;1.42;;;;;;;;;;4951259;28;20145;-67
2022/07/11 01:37:53;;;;;;;3.28;1.40;;;;;;;;;;4946804;28;20027;-66
2022/07/11 01:40:39;;;;;;;1.63;1.17;;;;;;;;;;4952019;28;20042;-67
2022/07/11 01:43:24;;;;;;;3.20;1.42;;;;;;;;;;4951848;28;20026;-68
2022/07/11 01:46:10;;;;;;;1.20;1.10;;;;;;;;;;4953768;28;20031;-65
2022/07/11 01:48:56;;;;;;;3.90;1.40;;;;;;;;;;4959562;28;20085;-66
2022/07/11 01:51:41;;;;;;;4.07;1.58;;;;;;;;;;4949992;28;20110;-74
2022/07/11 01:54:27;;;;;;;2.70;1.85;;;;;;;;;;4958920;28;20031;-72
2022/07/11 01:57:13;;;;;;;3.60;1.55;;;;;;;;;;4960241;28;20027;-73
2022/07/11 01:59:58;;;;;;;4.20;1.70;;;;;;;;;;4954947;28;20098;-74
2022/07/11 02:02:44;;;;;;;3.55;1.40;;;;;;;;;;4950562;28;20020;-73
2022/07/11 02:05:30;;;;;;;2.65;1.52;;;;;;;;;;4975596;28;20035;-73
2022/07/11 02:08:17;;;;;;;3.33;1.60;;;;;;;;;;4958521;28;20145;-67
2022/07/11 02:11:03;;;;;;;3.22;1.50;;;;;;;;;;4949033;28;20053;-67
2022/07/11 02:13:48;;;;;;;2.40;1.98;;;;;;;;;;4955051;28;20448;-65
2022/07/11 02:16:34;;;;;;;3.47;1.60;;;;;;;;;;4952060;28;20031;-65
2022/07/11 02:19:20;;;;;;;2.85;1.63;;;;;;;;;;4957273;28;20043;-65
2022/07/11 02:22:05;;;;;;;3.08;1.48;;;;;;;;;;4955042;28;20028;-65
2022/07/11 02:24:51;;;;;;;3.15;1.50;;;;;;;;;;4960413;28;20027;-66
2022/07/11 02:27:37;;;;;;;2.67;1.67;;;;;;;;;;4956680;28;20417;-73
2022/07/11 02:30:22;;;;;;;2.63;1.77;;;;;;;;;;4954852;28;20038;-74
2022/07/11 02:33:11;;;;;;;1.83;1.38;;;;;;;;;;4951647;28;20030;-74
2022/07/11 02:35:56;;;;;;;4.00;2.05;;;;;;;;;;4950631;28;20075;-73
2022/07/11 02:38:42;;;;;;;2.00;1.50;;;;;;;;;;4964360;28;20056;-73
2022/07/11 02:41:29;;;;;;;3.78;1.70;;;;;;;;;;4965730;28;20455;-73
2022/07/11 02:44:14;;;;;;;1.50;1.40;;;;;;;;;;4954105;28;20023;-73
2022/07/11 02:47:00;;;;;;;1.55;1.23;;;;;;;;;;4952100;28;20027;-67
2022/07/11 02:49:47;;;;;;;2.45;1.65;;;;;;;;;;4963367;28;20023;-64
2022/07/11 02:52:33;;;;;;;1.65;1.38;;;;;;;;;;4966947;28;20027;-65
2022/07/11 02:55:19;;;;;;;3.17;1.83;;;;;;;;;;4953111;28;20020;-64
2022/07/11 02:58:04;;;;;;;4.32;1.73;;;;;;;;;;4947446;28;20080;-66
2022/07/11 03:00:51;;;;;;;2.22;1.60;;;;;;;;;;4956396;28;20053;-65
2022/07/11 03:03:36;;;;;;;2.63;1.63;;;;;;;;;;4965203;28;20026;-73
2022/07/11 03:06:22;;;;;;;4.10;1.90;;;;;;;;;;4961662;28;20035;-66
2022/07/11 03:09:08;;;;;;;2.22;1.55;;;;;;;;;;4950631;28;20063;-66
2022/07/11 03:11:54;;;;;;;2.50;1.73;;;;;;;;;;4955937;28;20106;-67
2022/07/11 03:14:39;;;;;;;2.88;2.00;;;;;;;;;;4956347;28;20034;-67
2022/07/11 03:17:25;;;;;;;2.92;1.60;;;;;;;;;;4960242;28;20473;-65
2022/07/11 03:20:10;;;;;;;3.15;1.80;;;;;;;;;;4952943;28;20039;-66
2022/07/11 03:22:56;;;;;;;3.50;1.45;;;;;;;;;;4953262;28;20470;-72
2022/07/11 03:25:41;;;;;;;2.97;1.80;;;;;;;;;;4956703;28;20124;-73
2022/07/11 03:28:27;;;;;;;1.65;1.55;;;;;;;;;;4960429;28;20474;-72
2022/07/11 03:31:13;;;;;;;2.22;1.60;;;;;;;;;;4952844;28;20426;-71
2022/07/11 03:33:58;;;;;;;4.22;1.88;;;;;;;;;;4957942;28;20023;-72
2022/07/11 03:36:46;;;;;;;4.65;2.15;;;;;;;;;;4956561;28;20110;-72
2022/07/11 03:39:32;;;;;;;2.80;1.60;;;;;;;;;;4947242;28;20114;-72
2022/07/11 03:42:17;;;;;;;3.67;1.80;;;;;;;;;;4961193;28;20039;-72
2022/07/11 03:45:03;;;;;;;5.50;2.40;;;;;;;;;;4963813;28;20035;-75
2022/07/11 03:47:49;;;;;;;3.45;1.80;;;;;;;;;;4953132;28;20478;-73
2022/07/11 03:50:35;;;;;;;3.22;2.08;;;;;;;;;;4951889;28;20019;-73
2022/07/11 03:53:21;;;;;;;2.05;1.85;;;;;;;;;;4956641;28;20033;-73
2022/07/11 03:56:06;;;;;;;2.83;1.73;;;;;;;;;;4958703;28;20074;-73
2022/07/11 03:58:52;;;;;;;3.75;2.03;;;;;;;;;;4952209;28;20398;-71
2022/07/11 04:01:37;;;;;;;2.50;1.88;;;;;;;;;;4962390;28;20035;-68
2022/07/11 04:04:23;;;;;;;4.57;1.80;;;;;;;;;;4955346;28;20378;-68
2022/07/11 04:07:09;;;;;;;3.92;1.75;;;;;;;;;;4965368;28;20056;-67
2022/07/11 04:09:54;;;;;;;5.68;2.55;;;;;;;;;;4953091;28;20023;-67
2022/07/11 04:12:40;;;;;;;3.42;2.10;;;;;;;;;;4946940;28;20401;-66
2022/07/11 04:15:25;;;;;;;3.95;1.98;;;;;;;;;;4951418;28;20475;-67
2022/07/11 04:18:11;;;;;;;2.97;1.80;;;;;;;;;;4959525;28;20058;-69
2022/07/11 04:20:56;;;;;;;3.60;2.20;;;;;;;;;;4951612;28;20027;-73
2022/07/11 04:23:42;;;;;;;3.53;2.05;;;;;;;;;;4948383;28;20653;-75
2022/07/11 04:26:28;;;;;;;7.18;2.33;;;;;;;;;;4951886;28;20042;-72
2022/07/11 04:29:14;;;;;;;2.88;2.10;;;;;;;;;;4954535;28;20442;-73
2022/07/11 04:31:59;;;;;;;4.65;2.30;;;;;;;;;;4950656;28;20031;-71
2022/07/11 04:34:45;;;;;;;3.58;2.13;;;;;;;;;;4954556;28;20409;-73
2022/07/11 04:37:30;;;;;;;4.50;2.45;;;;;;;;;;4956930;28;20031;-67
2022/07/11 04:40:17;;;;;;;3.95;2.08;;;;;;;;;;4952424;28;20088;-68
2022/07/11 04:43:04;;;;;;;7.07;2.38;;;;;;;;;;4953990;28;20023;-68
2022/07/11 04:45:50;;;;;;;3.80;2.00;;;;;;;;;;4958442;28;20030;-66
2022/07/11 04:48:37;;;;;;;4.28;2.10;;;;;;;;;;4964222;28;20124;-68
2022/07/11 04:51:24;;;;;;;3.75;2.22;;;;;;;;;;4950470;28;20465;-69
2022/07/11 04:54:09;;;;;;;4.32;2.15;;;;;;;;;;4955050;28;20393;-67
2022/07/11 04:56:56;;;;;;;4.97;2.55;;;;;;;;;;4959289;28;20103;-69
2022/07/11 04:59:41;;;;;;;4.85;2.10;;;;;;;;;;4955048;28;20487;-69
2022/07/11 05:02:27;;;;;;;3.25;2.13;;;;;;;;;;4960145;28;20028;-68
2022/07/11 05:05:13;;;;;;;3.28;2.30;;;;;;;;;;4971036;28;20069;-68
2022/07/11 05:07:58;;;;;;;2.95;2.13;;;;;;;;;;4951406;28;20110;-69
2022/07/11 05:10:44;;;;;;;4.30;2.58;;;;;;;;;;4953020;28;20026;-70
2022/07/11 05:13:29;;;;;;;4.57;2.42;;;;;;;;;;4958958;28;20069;-75
2022/07/11 05:16:15;;;;;;;4.03;2.28;;;;;;;;;;4956120;28;20387;-68
2022/07/11 05:19:01;;;;;;;8.20;2.20;;;;;;;;;;4957851;28;20046;-68
2022/07/11 05:21:46;;;;;;;3.03;2.25;;;;;;;;;;4953890;28;20406;-68
2022/07/11 05:24:32;;;;;;;4.85;2.88;;;;;;;;;;4973285;28;20039;-67
2022/07/11 05:27:17;;;;;;;5.82;2.72;;;;;;;;;;4955896;28;20028;-68
2022/07/11 05:30:03;;;;;;;6.22;2.42;;;;;;;;;;4954683;28;20030;-68
2022/07/11 05:32:49;;;;;;;4.38;2.70;;;;;;;;;;4958914;28;20020;-74
2022/07/11 05:35:34;;;;;;;3.42;2.05;;;;;;;;;;4951062;28;20042;-72
2022/07/11 05:38:20;;;;;;;4.25;2.40;;;;;;;;;;4953994;28;20153;-71
2022/07/11 05:41:06;;;;;;;4.20;2.50;;;;;;;;;;4954076;28;20047;-71
2022/07/11 05:43:51;;;;;;;3.33;2.90;;;;;;;;;;4963511;28;20573;-71
2022/07/11 05:46:39;;;;;;;4.32;2.67;;;;;;;;;;4950089;28;20122;-72
2022/07/11 05:49:25;;;;;;;4.35;2.97;;;;;;;;;;4947014;28;20027;-78
2022/07/11 05:52:10;;;;;;;4.57;3.10;;;;;;;;;;4957694;28;20065;-72
2022/07/11 05:54:56;;;;;;;4.22;2.53;;;;;;;;;;4952771;28;20372;-71
2022/07/11 05:57:41;;;;;;;4.05;2.72;;;;;;;;;;4949652;28;20393;-70
2022/07/11 06:00:27;;;;;;;3.78;2.60;;;;;;;;;;4956020;28;20092;-69
2022/07/11 06:03:12;;;;;;;4.20;2.70;;;;;;;;;;4957465;28;20027;-71
2022/07/11 06:05:58;;;;;;;8.00;3.28;;;;;;;;;;4949700;28;20478;-60
2022/07/11 06:08:44;;;;;;;11.15;4.13;;;;;;;;;;4945857;28;20020;-62
2022/07/11 06:11:30;;;;;;;7.00;3.10;;;;;;;;;;4959188;28;20658;-69
2022/07/11 06:14:16;;;;;;;11.50;4.45;;;;;;;;;;4952982;28;20190;-69
2022/07/11 06:17:01;;;;;;;9.00;3.85;;;;;;;;;;4951980;28;20046;-70
2022/07/11 06:19:47;;;;;;;12.07;4.18;;;;;;;;;;4961551;28;20471;-71
2022/07/11 06:22:32;;;;;;;7.10;3.17;;;;;;;;;;4952038;28;20022;-68
2022/07/11 06:25:18;;;;;;;11.68;4.13;;;;;;;;;;4952612;28;20521;-68
2022/07/11 06:28:04;;;;;;;10.32;3.55;;;;;;;;;;4950729;28;20034;-69
2022/07/11 06:30:50;;;;;;;4.90;3.15;;;;;;;;;;4970032;28;20339;-59
2022/07/11 06:33:36;;;;;;;3.53;3.22;;;;;;;;;;4950563;28;20498;-60
2022/07/11 06:36:22;;;;;;;3.95;2.65;;;;;;;;;;4958993;28;20030;-59
2022/07/11 06:39:08;;;;;;;7.43;2.78;;;;;;;;;;4948098;28;20444;-59
2022/07/11 06:41:54;;;;;;;3.72;2.60;;;;;;;;;;4951110;28;20031;-59
2022/07/11 06:44:39;;;;;;;4.85;2.33;;;;;;;;;;4950263;28;20034;-59
2022/07/11 06:47:25;;;;;;;3.78;2.72;;;;;;;;;;4950761;28;20153;-70
2022/07/11 06:50:11;;;;;;;5.18;2.92;;;;;;;;;;4950098;28;20549;-68
2022/07/11 06:52:56;;;;;;;4.30;2.70;;;;;;;;;;4948741;28;20078;-68
2022/07/11 06:55:42;;;;;;;4.88;2.75;;;;;;;;;;4949507;28;20055;-68
2022/07/11 06:58:34;;;;;;;4.10;2.05;;;;;;;;;;4949685;28;20027;-69
2022/07/11 07:01:19;;;;;;;4.10;2.13;;;;;;;;;;4950322;28;20039;-68
2022/07/11 07:04:05;;;;;;;3.28;2.50;;;;;;;;;;4951923;28;20023;-58
2022/07/11 07:06:50;;;;;;;3.25;2.25;;;;;;;;;;4955609;28;20035;-58
2022/07/11 07:09:36;;;;;;;4.55;2.10;;;;;;;;;;4950127;28;20022;-59
2022/07/11 07:12:21;;;;;;;3.03;2.40;;;;;;;;;;4946320;28;20107;-59
2022/07/11 07:15:08;;;;;;;5.03;2.50;;;;;;;;;;4950503;28;20434;-64
2022/07/11 07:17:54;;;;;;;5.55;2.28;;;;;;;;;;4947569;28;20355;-60
2022/07/11 07:20:40;;;;;;;3.95;2.20;;;;;;;;;;4947166;28;20054;-62
2022/07/11 07:23:25;;;;;;;5.03;3.28;;;;;;;;;;4955475;28;20031;-63
2022/07/11 07:26:11;;;;;;;2.47;2.28;;;;;;;;;;4948578;28;20027;-60
2022/07/11 07:28:56;;;;;;;3.63;1.98;;;;;;;;;;4949398;28;20019;-59
2022/07/11 07:31:42;;;;;;;3.78;2.22;;;;;;;;;;4948110;28;20066;-60
2022/07/11 07:34:28;;;;;;;3.22;2.08;;;;;;;;;;4949636;28;20375;-59
2022/07/11 07:37:14;;;;;;;3.15;2.20;;;;;;;;;;4957510;28;20054;-59
2022/07/11 07:40:00;;;;;;;3.15;1.90;;;;;;;;;;4949340;28;20039;-61
2022/07/11 07:42:45;;;;;;;3.47;1.90;;;;;;;;;;4951331;28;20046;-60
2022/07/11 07:45:31;;;;;;;2.78;2.00;;;;;;;;;;4990319;28;20489;-60
2022/07/11 07:48:16;;;;;;;1.65;1.55;;;;;;;;;;4949140;28;20027;-59
2022/07/11 07:51:02;;;;;;;2.55;1.60;;;;;;;;;;4947278;28;20031;-61
2022/07/11 07:53:48;;;;;;;2.83;1.85;;;;;;;;;;4958489;28;20107;-60
2022/07/11 07:56:33;;;;;;;4.40;1.77;;;;;;;;;;4954108;28;20023;-59
2022/07/11 07:59:19;;;;;;;3.15;1.80;;;;;;;;;;4992301;28;20181;-68
2022/07/11 08:02:05;;;;;;;3.20;1.65;;;;;;;;;;4949607;28;20035;-66
2022/07/11 08:04:50;;;;;;;2.08;1.60;;;;;;;;;;4947878;28;20026;-67
2022/07/11 08:07:36;;;;;;;1.50;1.40;;;;;;;;;;4948572;28;20028;-70
2022/07/11 08:10:21;;;;;;;2.45;1.25;;;;;;;;;;4949314;28;20035;-69
2022/07/11 08:13:07;;;;;;;3.78;1.50;;;;;;;;;;4950374;28;20478;-69
2022/07/11 08:15:52;;;;;;;3.40;1.55;;;;;;;;;;4954642;28;20072;-62
2022/07/11 08:18:38;;;;;;;4.40;1.52;;;;;;;;;;4960469;28;20320;-63
2022/07/11 08:21:23;;;;;;;1.63;1.40;;;;;;;;;;4946672;28;20042;-70
2022/07/11 08:24:09;;;;;;;3.90;2.42;;;;;;;;;;4961079;28;20023;-69
2022/07/11 08:26:54;;;;;;;2.20;1.70;;;;;;;;;;4981562;28;20111;-68
2022/07/11 08:29:40;;;;;;;3.08;1.73;;;;;;;;;;4952027;28;20164;-68
2022/07/11 08:32:26;;;;;;;4.95;1.63;;;;;;;;;;4954463;28;20034;-68
2022/07/11 08:35:11;;;;;;;4.53;1.58;;;;;;;;;;4951033;28;20398;-62
2022/07/11 08:37:57;;;;;;;2.53;1.20;;;;;;;;;;4951649;28;20041;-68
2022/07/11 08:40:43;;;;;;;2.47;1.20;;;;;;;;;;4951280;28;20114;-69
2022/07/11 08:43:31;;;;;;;1.20;1.00;;;;;;;;;;4957989;28;20023;-69
2022/07/11 08:46:17;;;;;;;0.88;0.82;;;;;;;;;;4942554;28;20398;-69
2022/07/11 08:49:03;;;;;;;3.05;1.63;;;;;;;;;;4938656;28;20398;-69
2022/07/11 08:51:49;;;;;;;2.13;1.40;;;;;;;;;;4955189;28;20026;-68
2022/07/11 08:54:35;;;;;;;3.15;1.42;;;;;;;;;;4951481;28;20389;-60
2022/07/11 08:57:20;;;;;;;3.70;1.70;;;;;;;;;;5030056;28;20524;-60
2022/07/11 09:00:08;;;;;;;1.67;1.08;;;;;;;;;;4952092;28;20110;-63
2022/07/11 09:02:54;;;;;;;17.45;1.50;;;;;;;;;;4957146;28;20062;-62
2022/07/11 09:05:40;;;;;;;2.55;1.30;;;;;;;;;;4950188;28;20035;-64
2022/07/11 09:08:25;;;;;;;1.48;1.35;;;;;;;;;;4959963;28;20081;-62
2022/07/11 09:11:11;;;;;;;3.88;1.10;;;;;;;;;;4949242;28;20205;-63
2022/07/11 09:13:56;;;;;;;1.48;0.95;;;;;;;;;;4957747;28;20027;-64
2022/07/11 09:17:02;;;;;;;1.95;1.10;;;;;;;;;;4951656;28;20033;-64
2022/07/11 09:19:49;;;;;;;1.25;0.95;;;;;;;;;;4949820;28;20019;-63
2022/07/11 09:25:42;;;;;;;3.35;1.30;;;;;;;;;;4943761;28;20439;-63
2022/07/11 09:28:28;;;;;;;1.98;1.10;;;;;;;;;;4954421;28;20073;-62
2022/07/11 09:31:17;;;;;;;1.20;1.10;;;;;;;;;;4980115;28;20033;-68
2022/07/11 09:34:04;;;;;;;2.75;0.85;;;;;;;;;;4950887;28;20097;-61
2022/07/11 09:36:51;;;;;;;2.05;1.15;;;;;;;;;;4953468;28;20105;-61
2022/07/11 09:39:37;;;;;;;1.30;0.88;;;;;;;;;;4953090;28;20027;-60
2022/07/11 09:42:23;;;;;;;1.30;0.93;;;;;;;;;;4950510;28;20097;-62
2022/07/11 09:45:12;;;;;;;3.00;1.00;;;;;;;;;;4963536;28;20027;-62
2022/07/11 09:47:57;;;;;;;;;;;;;;;;;;4943486;28;20024;-60
2022/07/11 09:51:00;;;;;;;1.45;1.20;;;;;;;;;;4948583;28;20013;-67
2022/07/11 09:53:56;;;;;;;1.23;1.13;;;;;;;;;;4948700;28;20028;-60
2022/07/11 09:56:43;;;;;;;2.70;1.23;;;;;;;;;;4948065;28;20034;-61
2022/07/11 09:59:29;;;;;;;2.35;1.33;;;;;;;;;;4950349;28;20106;-59
2022/07/11 10:02:15;;;;;;;3.05;1.58;;;;;;;;;;4965208;28;20041;-62
2022/07/11 10:05:02;;;;;;;2.58;1.10;;;;;;;;;;4986362;28;20023;-60
2022/07/11 10:07:47;;;;;;;1.85;1.17;;;;;;;;;;4947590;28;20019;-64
2022/07/11 10:10:33;;;;;;;3.42;1.20;;;;;;;;;;4949206;28;20046;-64
2022/07/11 10:13:19;;;;;;;3.13;1.30;;;;;;;;;;4958076;28;20110;-64
2022/07/11 10:16:10;;;;;;;1.98;1.25;;;;;;;;;;4951417;28;20027;-64
2022/07/11 10:18:57;;;;;;;1.95;1.13;;;;;;;;;;4950901;28;20505;-63
2022/07/11 10:21:54;;;;;;;1.10;0.93;;;;;;;;;;4946326;28;20417;-65
2022/07/11 10:24:46;;;;;;;2.10;1.00;;;;;;;;;;4956926;28;20033;-62
2022/07/11 10:27:49;;;;;;;2.38;1.38;;;;;;;;;;4954544;28;20114;-63
2022/07/11 10:30:46;;;;;;;1.63;1.17;;;;;;;;;;4947304;28;20028;-69
2022/07/11 10:33:31;;;;;;;1.35;1.25;;;;;;;;;;4959423;28;20027;-68
2022/07/11 10:36:27;;;;;;;1.13;1.00;;;;;;;;;;4953410;28;20478;-69
2022/07/11 10:39:12;;;;;;;5.57;2.05;;;;;;;;;;4948575;28;20154;-69
2022/07/11 10:41:59;;;;;;;4.07;1.20;;;;;;;;;;4950295;28;20035;-69
2022/07/11 10:44:54;;;;;;;1.92;1.00;;;;;;;;;;4947743;28;20032;-64
2022/07/11 10:47:41;;;;;;;1.52;1.10;;;;;;;;;;4957421;28;20993;-63
2022/07/11 10:50:46;;;;;;;2.70;1.17;;;;;;;;;;4951051;28;20103;-64
2022/07/11 10:53:34;;;;;;;2.45;1.30;;;;;;;;;;4949593;28;20052;-62
2022/07/11 10:56:19;;;;;;;3.08;1.10;;;;;;;;;;4949794;28;20039;-63
2022/07/11 10:59:17;;;;;;;1.10;1.02;;;;;;;;;;4950499;28;20541;-60
2022/07/11 11:02:07;;;;;;;3.13;1.00;;;;;;;;;;4956276;28;20509;-61
2022/07/11 11:05:12;;;;;;;2.20;1.08;;;;;;;;;;4954805;28;20015;-65
2022/07/11 11:07:58;;;;;;;1.38;1.05;;;;;;;;;;4962740;28;20047;-62
2022/07/11 11:10:44;;;;;;;4.53;1.42;;;;;;;;;;4947069;28;20270;-62
2022/07/11 11:13:30;;;;;;;1.55;1.13;;;;;;;;;;4954460;28;20401;-61
2022/07/11 11:16:19;;;;;;;1.20;1.10;;;;;;;;;;4956766;28;20045;-61
2022/07/11 11:19:05;;;;;;;1.58;1.10;;;;;;;;;;4957739;28;20073;-61
2022/07/11 11:22:11;;;;;;;2.08;1.60;;;;;;;;;;4957378;28;20074;-60
2022/07/11 11:24:57;;;;;;;1.40;1.17;;;;;;;;;;4950175;28;20031;-64
2022/07/11 11:28:00;;;;;;;1.70;1.20;;;;;;;;;;4951197;28;20031;-64
2022/07/11 11:30:56;;;;;;;2.92;1.40;;;;;;;;;;4967930;28;20071;-64
2022/07/11 11:33:44;;;;;;;1.20;1.10;;;;;;;;;;4955722;28;20168;-65
2022/07/11 11:36:30;;;;;;;1.30;1.02;;;;;;;;;;4955575;28;20063;-64
2022/07/11 11:39:39;;;;;;;1.13;1.02;;;;;;;;;;4952181;28;20063;-63
2022/07/11 11:42:25;;;;;;;1.30;1.20;;;;;;;;;;4949410;28;20050;-69
2022/07/11 11:45:12;;;;;;;1.90;1.17;;;;;;;;;;4961630;28;20074;-69
2022/07/11 11:47:57;;;;;;;3.92;1.35;;;;;;;;;;4949558;28;20378;-69
2022/07/11 11:50:43;;;;;;;2.20;1.35;;;;;;;;;;4950946;28;20031;-68
2022/07/11 11:53:34;;;;;;;0.98;0.90;;;;;;;;;;4949676;28;20114;-69
2022/07/11 11:56:28;;;;;;;2.70;1.33;;;;;;;;;;4941744;28;20027;-70
2022/07/11 11:59:15;;;;;;;1.20;1.10;;;;;;;;;;4950730;28;20031;-69
2022/07/11 12:02:00;;;;;;;2.03;1.10;;;;;;;;;;4952929;28;20521;-61
2022/07/11 12:04:46;;;;;;;1.83;1.20;;;;;;;;;;4951092;28;20038;-62
2022/07/11 12:07:32;;;;;;;1.35;1.10;;;;;;;;;;4953078;28;20096;-63
2022/07/11 12:10:17;;;;;;;4.15;1.45;;;;;;;;;;4948826;28;20023;-62
2022/07/11 12:13:03;;;;;;;2.42;1.50;;;;;;;;;;5004022;28;20019;-62
2022/07/11 12:18:52;;;;;;;2.72;1.15;;;;;;;;;;4973373;28;20023;-60
2022/07/11 12:21:39;;;;;;;1.60;1.20;;;;;;;;;;4950371;28;20070;-60
2022/07/11 12:24:28;;;;;;;1.65;1.55;;;;;;;;;;4957570;28;20137;-60
2022/07/11 12:27:20;;;;;;;1.80;1.40;;;;;;;;;;4946197;28;20478;-63
2022/07/11 12:30:06;;;;;;;2.55;1.30;;;;;;;;;;4954650;28;20034;-61
2022/07/11 12:33:05;;;;;;;2.47;1.50;;;;;;;;;;4998613;28;20102;-64
2022/07/11 12:35:55;;;;;;;1.75;1.38;;;;;;;;;;4951067;28;20393;-60
2022/07/11 12:38:53;;;;;;;1.90;1.50;;;;;;;;;;4949010;28;20034;-63
2022/07/11 12:41:39;;;;;;;3.17;1.23;;;;;;;;;;4950337;28;20068;-61
2022/07/11 12:47:30;;;;;;;2.40;1.40;;;;;;;;;;4949817;28;20027;-61
2022/07/11 12:50:16;;;;;;;3.35;1.38;;;;;;;;;;4949433;28;20478;-63
2022/07/11 12:53:02;;;;;;;1.50;1.40;;;;;;;;;;4970628;28;21268;-61
2022/07/11 12:55:47;;;;;;;1.35;1.25;;;;;;;;;;4953239;28;20022;-60
2022/07/11 12:58:39;;;;;;;2.45;1.50;;;;;;;;;;4952011;28;20547;-60
2022/07/11 13:01:24;;;;;;;3.08;1.50;;;;;;;;;;4947360;28;20070;-60
2022/07/11 13:04:27;;;;;;;3.65;1.60;;;;;;;;;;4950257;28;20039;-59
2022/07/11 13:10:50;;;;;;;2.20;1.38;;;;;;;;;;4954196;28;20023;-60
2022/07/11 13:13:33;;;;;;;1.20;1.10;;;;;;;;;;4944983;28;20030;-69
2022/07/11 13:16:19;;;;;;;2.15;1.63;;;;;;;;;;4947920;28;20058;-70
2022/07/11 13:19:04;;;;;;;2.55;1.58;;;;;;;;;;4949449;28;20016;-68
2022/07/11 13:21:50;;;;;;;2.30;1.55;;;;;;;;;;4955332;28;20398;-68
2022/07/11 13:24:35;;;;;;;3.00;1.35;;;;;;;;;;4956231;28;20030;-69
2022/07/11 13:27:21;;;;;;;2.45;1.25;;;;;;;;;;4947662;28;20057;-69
2022/07/11 13:30:12;;;;;;;4.20;1.70;;;;;;;;;;4961955;28;20448;-60
2022/07/11 13:32:58;;;;;;;2.50;1.60;;;;;;;;;;4953827;28;20050;-61
2022/07/11 13:35:45;;;;;;;3.53;1.52;;;;;;;;;;4949198;28;20114;-61
2022/07/11 13:38:31;;;;;;;3.03;1.48;;;;;;;;;;4962050;28;20062;-61
2022/07/11 13:41:16;;;;;;;3.05;1.83;;;;;;;;;;4947609;28;20174;-61
2022/07/11 13:44:02;;;;;;;1.77;1.65;;;;;;;;;;4948425;28;20027;-62
2022/07/11 13:46:48;;;;;;;2.28;1.42;;;;;;;;;;4948219;28;20444;-61
2022/07/11 13:49:34;;;;;;;4.30;1.40;;;;;;;;;;4951780;28;20098;-68
2022/07/11 13:52:20;;;;;;;2.13;1.70;;;;;;;;;;4949054;28;20035;-63
2022/07/11 13:55:05;;;;;;;5.10;1.55;;;;;;;;;;4952864;28;20015;-62
2022/07/11 13:57:52;;;;;;;3.70;1.75;;;;;;;;;;4957756;28;20027;-61
2022/07/11 14:00:38;;;;;;;2.60;1.90;;;;;;;;;;4950568;28;20559;-62
2022/07/11 14:03:24;;;;;;;3.72;1.70;;;;;;;;;;4956018;28;20054;-62
2022/07/11 14:06:09;;;;;;;3.60;1.92;;;;;;;;;;4958497;28;20068;-60
2022/07/11 14:08:55;;;;;;;3.95;2.30;;;;;;;;;;5007933;28;20112;-59
2022/07/11 14:11:40;;;;;;;2.80;1.95;;;;;;;;;;4949237;28;20081;-58
2022/07/11 14:14:27;;;;;;;3.58;1.73;;;;;;;;;;4950557;28;20034;-60
2022/07/11 14:17:12;;;;;;;4.40;1.88;;;;;;;;;;4953257;28;20023;-59
2022/07/11 14:19:58;;;;;;;3.58;2.00;;;;;;;;;;4950478;28;20019;-60
2022/07/11 14:22:43;;;;;;;3.50;2.00;;;;;;;;;;4956142;28;20486;-60
2022/07/11 14:25:29;;;;;;;3.28;1.77;;;;;;;;;;4950784;28;20031;-62
2022/07/11 14:28:16;;;;;;;3.17;1.70;;;;;;;;;;4955719;28;20031;-69
2022/07/11 14:31:02;;;;;;;3.45;1.83;;;;;;;;;;4948845;28;20085;-70
2022/07/11 14:33:49;;;;;;;3.03;2.10;;;;;;;;;;4947615;28;20015;-70
2022/07/11 14:36:35;;;;;;;2.65;1.83;;;;;;;;;;4978470;28;20019;-68
2022/07/11 14:39:21;;;;;;;6.53;1.90;;;;;;;;;;4959645;28;20035;-70
2022/07/11 14:42:07;;;;;;;2.58;1.70;;;;;;;;;;4951966;28;20510;-68
2022/07/11 14:44:53;;;;;;;4.10;2.00;;;;;;;;;;4952091;28;20034;-60
2022/07/11 14:47:39;;;;;;;4.28;1.95;;;;;;;;;;4942422;28;20043;-67
2022/07/11 14:50:25;;;;;;;2.20;1.90;;;;;;;;;;4951297;28;20693;-66
2022/07/11 14:53:11;;;;;;;3.30;2.00;;;;;;;;;;4958781;28;20027;-68
2022/07/11 14:55:57;;;;;;;3.28;2.20;;;;;;;;;;4946299;28;20027;-66
2022/07/11 14:58:42;;;;;;;2.88;1.83;;;;;;;;;;4952876;28;20073;-66
2022/07/11 15:01:28;;;;;;;3.67;2.17;;;;;;;;;;4951644;28;20151;-63
2022/07/11 15:04:15;;;;;;;6.05;1.77;;;;;;;;;;4954345;28;20030;-62
2022/07/11 15:13:09;;;;;;;2.25;1.77;;;;;;;;;;4940860;28;20031;-61
2022/07/11 15:15:55;;;;;;;3.47;2.35;;;;;;;;;;4956378;28;20026;-62
2022/07/11 15:18:40;;;;;;;3.05;1.90;;;;;;;;;;4952381;28;20478;-61
2022/07/11 15:21:26;;;;;;;6.82;2.38;;;;;;;;;;4951914;28;20031;-66
2022/07/11 15:24:12;;;;;;;4.28;2.28;;;;;;;;;;4956092;28;20027;-60
2022/07/11 15:26:58;;;;;;;4.55;2.10;;;;;;;;;;4945954;28;20030;-60
2022/07/11 15:29:44;;;;;;;5.35;2.15;;;;;;;;;;4947876;28;20058;-59
2022/07/11 15:32:30;;;;;;;3.50;2.13;;;;;;;;;;4950667;28;20035;-59
2022/07/11 15:35:16;;;;;;;5.85;2.58;;;;;;;;;;4954842;28;20023;-59
2022/07/11 15:38:02;;;;;;;5.25;2.70;;;;;;;;;;4960216;28;20027;-69
2022/07/11 15:40:48;;;;;;;6.88;2.05;;;;;;;;;;4958478;28;20038;-60
2022/07/11 15:43:33;;;;;;;4.28;2.03;;;;;;;;;;4951247;28;20065;-60
2022/07/11 15:46:19;;;;;;;4.05;2.10;;;;;;;;;;4969797;28;20026;-61
2022/07/11 15:49:04;;;;;;;5.15;2.17;;;;;;;;;;4950301;28;20023;-62
2022/07/11 15:51:51;;;;;;;2.22;1.70;;;;;;;;;;4948951;28;20019;-61
2022/07/11 15:54:37;;;;;;;4.30;1.90;;;;;;;;;;4956569;28;20402;-61
2022/07/11 15:57:22;;;;;;;2.88;1.90;;;;;;;;;;4954734;28;20066;-60
2022/07/11 16:00:10;;;;;;;4.18;2.00;;;;;;;;;;4953854;28;20088;-66
2022/07/11 16:02:57;;;;;;;;;;;;;;;;;;4949094;28;20114;-66
2022/07/11 16:05:42;;;;;;;3.47;2.10;;;;;;;;;;4950362;28;19910;-64
2022/07/11 16:08:28;;;;;;;3.10;2.03;;;;;;;;;;4952140;28;20062;-67
2022/07/11 16:11:15;;;;;;;3.50;1.83;;;;;;;;;;4951983;28;20070;-67
2022/07/11 16:14:00;;;;;;;2.75;1.85;;;;;;;;;;4944342;28;20028;-65
2022/07/11 16:16:46;;;;;;;5.85;2.30;;;;;;;;;;4952034;28;20028;-66
2022/07/11 16:19:32;;;;;;;6.60;1.98;;;;;;;;;;4950063;28;20112;-72
2022/07/11 16:22:18;;;;;;;2.95;1.88;;;;;;;;;;4955772;28;20318;-70
2022/07/11 16:25:03;;;;;;;2.35;1.95;;;;;;;;;;4958863;28;20026;-72
2022/07/11 16:27:49;;;;;;;2.67;1.85;;;;;;;;;;4959232;28;20088;-73
2022/07/11 16:30:36;;;;;;;3.70;2.45;;;;;;;;;;4949691;28;20050;-72
2022/07/11 16:33:22;;;;;;;4.88;2.05;;;;;;;;;;4953581;28;20076;-74
2022/07/11 16:36:07;;;;;;;3.85;2.10;;;;;;;;;;4956540;28;20529;-72
2022/07/11 16:45:02;;;;;;;3.65;1.90;;;;;;;;;;4951896;28;20019;-62
2022/07/11 16:47:50;;;;;;;6.45;2.13;;;;;;;;;;4952046;28;20023;-63
2022/07/11 16:50:36;;;;;;;5.07;2.33;;;;;;;;;;4952605;28;20030;-62
2022/07/11 16:53:22;;;;;;;4.03;2.10;;;;;;;;;;4950618;28;20149;-70
2022/07/11 16:56:09;;;;;;;5.60;2.40;;;;;;;;;;4960210;28;20031;-66
2022/07/11 16:58:54;;;;;;;2.80;1.98;;;;;;;;;;4950991;28;20539;-68
2022/07/11 17:01:40;;;;;;;5.15;1.88;;;;;;;;;;4948566;28;20054;-75
2022/07/11 17:04:26;;;;;;;2.88;2.08;;;;;;;;;;4951102;28;20023;-78